Time;durP1;ratioP1;P1;durP2;ratioP2;P2;SDS_P1;SDS_P2;PMS_P1;PMS_P2;Temp;Humidity;BMP_temperature;BMP_pressure;BME280_temperature;BME280_humidity;BME280_pressure;Samples;Min_cycle;Max_cycle;Signal;HPM_P1;HPM_P2
2023/01/10 00:00:54;;;;;;;;;;;20.80;53.50;;;;;;6033729;29;19928;-55
2023/01/10 00:03:56;;;;;;;;;;;20.60;54.50;;;;;;6033393;29;20305;-54
2023/01/10 00:06:57;;;;;;;;;;;20.60;54.30;;;;;;6033587;29;19972;-55
2023/01/10 00:09:59;;;;;;;;;;;20.70;54.40;;;;;;6033570;29;19988;-55
2023/01/10 00:16:16;;;;;;;;;;;20.80;54.10;;;;;;6032316;29;19928;-55
2023/01/10 00:19:18;;;;;;;;;;;20.90;54.20;;;;;;6034048;29;19940;-54
2023/01/10 00:22:23;;;;;;;;;;;20.50;54.00;;;;;;6037102;29;19924;-55
2023/01/10 00:25:26;;;;;;;;;;;20.60;53.90;;;;;;6036651;29;20373;-55
2023/01/10 00:28:27;;;;;;;;;;;20.70;54.50;;;;;;6020630;29;20361;-56
2023/01/10 00:31:28;;;;;;;;;;;20.50;53.90;;;;;;6037003;29;19928;-55
2023/01/10 00:34:31;;;;;;;;;;;20.40;53.70;;;;;;6036663;29;19931;-55
2023/01/10 00:37:33;;;;;;;;;;;21.00;54.00;;;;;;6037285;29;19928;-54
2023/01/10 00:40:35;;;;;;;;;;;20.40;53.60;;;;;;6036845;29;19924;-55
2023/01/10 00:46:50;;;;;;;;;;;20.70;53.60;;;;;;6036288;29;19930;-55
2023/01/10 00:49:51;;;;;;;;;;;20.80;53.80;;;;;;6036511;29;19928;-55
2023/01/10 00:52:52;;;;;;;;;;;20.20;53.60;;;;;;6036542;29;19924;-55
2023/01/10 00:55:54;;;;;;;;;;;20.70;53.70;;;;;;6036344;29;19956;-55
2023/01/10 00:58:56;;;;;;;;;;;20.70;53.80;;;;;;6036478;29;20408;-54
2023/01/10 01:01:57;;;;;;;;;;;20.70;53.80;;;;;;6035862;29;19962;-55
2023/01/10 01:04:58;;;;;;;;;;;20.60;53.70;;;;;;6019152;29;20296;-55
2023/01/10 01:08:00;;;;;;;;;;;20.80;53.80;;;;;;6036131;29;19924;-54
2023/01/10 01:11:01;;;;;;;;;;;20.20;53.30;;;;;;6035924;29;19931;-55
2023/01/10 01:14:03;;;;;;;;;;;20.60;53.60;;;;;;6036209;29;20395;-55
2023/01/10 01:17:04;;;;;;;;;;;20.70;53.70;;;;;;6036626;29;19924;-53
2023/01/10 01:20:06;;;;;;;;;;;20.50;53.50;;;;;;6036258;29;19923;-54
2023/01/10 01:23:07;;;;;;;;;;;20.70;53.60;;;;;;6035694;29;20307;-55
2023/01/10 01:26:09;;;;;;;;;;;20.40;53.40;;;;;;6035814;29;19931;-53
2023/01/10 01:29:11;;;;;;;;;;;20.70;53.50;;;;;;6035964;29;20027;-55
2023/01/10 01:32:12;;;;;;;;;;;20.40;53.50;;;;;;6035868;29;19931;-53
2023/01/10 01:35:14;;;;;;;;;;;20.70;53.50;;;;;;6035862;29;19924;-55
2023/01/10 01:38:16;;;;;;;;;;;20.70;53.40;;;;;;6035976;29;19963;-55
2023/01/10 01:44:31;;;;;;;;;;;20.60;53.40;;;;;;6035749;29;20289;-55
2023/01/10 01:47:34;;;;;;;;;;;20.40;53.30;;;;;;6035551;29;19924;-54
2023/01/10 01:50:38;;;;;;;;;;;20.70;53.40;;;;;;6019535;29;19931;-55
2023/01/10 01:53:41;;;;;;;;;;;20.70;53.30;;;;;;6035551;29;19931;-55
2023/01/10 01:56:46;;;;;;;;;;;20.50;53.20;;;;;;6036081;29;19947;-55
2023/01/10 01:59:48;;;;;;;;;;;20.70;53.40;;;;;;6035339;29;19924;-55
2023/01/10 02:02:51;;;;;;;;;;;20.50;53.10;;;;;;6019397;29;19931;-54
2023/01/10 02:06:03;;;;;;;;;;;20.70;53.30;;;;;;6035373;29;20296;-55
2023/01/10 02:09:09;;;;;;;;;;;20.70;53.10;;;;;;6036909;29;20368;-44
2023/01/10 02:12:12;;;;;;;;;;;20.60;53.00;;;;;;6037712;29;20254;-45
2023/01/10 02:15:15;;;;;;;;;;;20.70;53.20;;;;;;6037279;29;19927;-43
2023/01/10 02:18:16;;;;;;;;;;;20.80;53.10;;;;;;6036679;29;20380;-45
2023/01/10 02:21:22;;;;;;;;;;;20.60;53.00;;;;;;6021664;29;19924;-43
2023/01/10 02:24:34;;;;;;;;;;;20.40;51.00;;;;;;6010659;29;19967;-54
2023/01/10 02:27:43;;;;;;;;;;;20.30;52.70;;;;;;6012443;29;20022;-53
2023/01/10 02:31:03;;;;;;;;;;;20.60;52.90;;;;;;6012032;29;19998;-54
2023/01/10 02:34:07;;;;;;;;;;;21.10;53.10;;;;;;6012345;29;20281;-55
2023/01/10 02:37:13;;;;;;;;;;;20.50;52.80;;;;;;6012265;29;19925;-53
2023/01/10 02:40:20;;;;;;;;;;;20.40;52.80;;;;;;6012138;29;19952;-54
2023/01/10 02:43:22;;;;;;;;;;;20.60;52.90;;;;;;5995425;29;20389;-54
2023/01/10 02:46:26;;;;;;;;;;;20.40;52.80;;;;;;6011929;29;19967;-54
2023/01/10 02:49:28;;;;;;;;;;;20.50;52.90;;;;;;6012136;29;19925;-52
2023/01/10 02:52:29;;;;;;;;;;;20.60;53.00;;;;;;6012077;29;19977;-54
2023/01/10 02:55:37;;;;;;;;;;;20.60;53.00;;;;;;6012094;29;19928;-54
2023/01/10 02:58:46;;;;;;;;;;;20.60;52.80;;;;;;6011657;29;19960;-53
2023/01/10 03:01:55;;;;;;;;;;;20.50;52.80;;;;;;6011958;29;19924;-53
2023/01/10 03:05:02;;;;;;;;;;;20.70;52.90;;;;;;6011896;29;19925;-52
2023/01/10 03:08:09;;;;;;;;;;;20.40;52.70;;;;;;6011667;29;19931;-54
2023/01/10 03:11:11;;;;;;;;;;;20.20;52.60;;;;;;6012099;29;19946;-50
2023/01/10 03:14:15;;;;;;;;;;;20.50;52.90;;;;;;6011634;29;20317;-54
2023/01/10 03:17:18;;;;;;;;;;;20.40;52.70;;;;;;6011717;29;19974;-55
2023/01/10 03:20:21;;;;;;;;;;;20.60;52.70;;;;;;6011672;29;19924;-54
2023/01/10 03:23:23;;;;;;;;;;;20.40;52.80;;;;;;6011505;29;19965;-50
2023/01/10 03:26:26;;;;;;;;;;;20.50;52.70;;;;;;6011672;29;20016;-54
2023/01/10 03:29:33;;;;;;;;;;;20.40;52.70;;;;;;6011763;29;20364;-54
2023/01/10 03:32:35;;;;;;;;;;;20.50;52.80;;;;;;5995401;29;20373;-53
2023/01/10 03:35:41;;;;;;;;;;;20.70;52.90;;;;;;6011346;29;19931;-54
2023/01/10 03:38:46;;;;;;;;;;;20.60;52.90;;;;;;6011510;29;19959;-53
2023/01/10 03:41:50;;;;;;;;;;;20.70;52.90;;;;;;6011302;29;19924;-54
2023/01/10 03:44:54;;;;;;;;;;;20.50;52.80;;;;;;6011579;29;19955;-54
2023/01/10 03:47:56;;;;;;;;;;;20.30;52.60;;;;;;6011807;29;19931;-52
2023/01/10 03:50:59;;;;;;;;;;;20.60;52.80;;;;;;6011424;29;19992;-54
2023/01/10 03:54:01;;;;;;;;;;;20.50;52.80;;;;;;6011764;29;19925;-54
2023/01/10 03:57:02;;;;;;;;;;;20.50;52.80;;;;;;6015054;29;19924;-51
2023/01/10 04:00:04;;;;;;;;;;;20.70;52.90;;;;;;6015287;29;19930;-54
2023/01/10 04:03:08;;;;;;;;;;;20.30;52.70;;;;;;6014819;29;19924;-52
2023/01/10 04:06:10;;;;;;;;;;;20.30;52.70;;;;;;5998716;29;19963;-53
2023/01/10 04:09:11;;;;;;;;;;;20.40;52.80;;;;;;6014833;29;19936;-52
2023/01/10 04:12:13;;;;;;;;;;;20.70;53.00;;;;;;5998323;29;19924;-51
2023/01/10 04:15:14;;;;;;;;;;;20.60;52.90;;;;;;6014964;29;20285;-53
2023/01/10 04:18:15;;;;;;;;;;;20.30;52.80;;;;;;6014649;29;20354;-51
2023/01/10 04:21:17;;;;;;;;;;;20.70;52.90;;;;;;6014529;29;20004;-54
2023/01/10 04:24:19;;;;;;;;;;;21.10;53.30;;;;;;6014268;29;19924;-52
2023/01/10 04:27:20;;;;;;;;;;;20.70;53.10;;;;;;6014615;29;19925;-48
2023/01/10 04:30:21;;;;;;;;;;;20.80;53.10;;;;;;6014556;29;19970;-53
2023/01/10 04:33:22;;;;;;;;;;;20.50;53.00;;;;;;6014813;29;20436;-51
2023/01/10 04:36:24;;;;;;;;;;;20.80;53.10;;;;;;6014433;29;19924;-53
2023/01/10 04:39:26;;;;;;;;;;;20.70;53.00;;;;;;6013975;29;19924;-52
2023/01/10 04:42:27;;;;;;;;;;;20.40;53.00;;;;;;6013876;29;20375;-52
2023/01/10 04:45:28;;;;;;;;;;;20.50;52.90;;;;;;6014148;29;19963;-54
2023/01/10 04:48:30;;;;;;;;;;;20.40;53.00;;;;;;6014068;29;19970;-54
2023/01/10 04:51:32;;;;;;;;;;;20.50;53.00;;;;;;6013953;29;19928;-51
2023/01/10 04:54:33;;;;;;;;;;;20.80;53.10;;;;;;6013946;29;19966;-54
2023/01/10 04:57:34;;;;;;;;;;;20.50;53.00;;;;;;6013868;29;19924;-52
2023/01/10 05:00:36;;;;;;;;;;;20.30;52.90;;;;;;6013514;29;19924;-53
2023/01/10 05:03:37;;;;;;;;;;;20.30;53.00;;;;;;6013903;29;19982;-54
2023/01/10 05:06:39;;;;;;;;;;;20.30;53.10;;;;;;6013428;29;19970;-54
2023/01/10 05:09:41;;;;;;;;;;;20.50;53.10;;;;;;6013460;29;20323;-53
2023/01/10 05:12:42;;;;;;;;;;;20.90;53.30;;;;;;6013658;29;19958;-53
2023/01/10 05:15:44;;;;;;;;;;;20.40;53.00;;;;;;6013436;29;19956;-52
2023/01/10 05:18:45;;;;;;;;;;;20.40;53.10;;;;;;6013283;29;19924;-54
2023/01/10 05:21:47;;;;;;;;;;;20.40;53.00;;;;;;6013659;29;19931;-53
2023/01/10 05:24:48;;;;;;;;;;;20.40;53.10;;;;;;6013468;29;19924;-52
2023/01/10 05:27:50;;;;;;;;;;;20.30;52.90;;;;;;6013065;29;19972;-52
2023/01/10 05:30:51;;;;;;;;;;;21.10;53.50;;;;;;6013577;29;19956;-49
2023/01/10 05:33:52;;;;;;;;;;;20.50;53.30;;;;;;6013001;29;20421;-52
2023/01/10 05:36:54;;;;;;;;;;;20.40;53.10;;;;;;6012915;29;19967;-53
2023/01/10 05:39:55;;;;;;;;;;;20.50;53.20;;;;;;6013230;29;19971;-53
2023/01/10 05:42:57;;;;;;;;;;;20.30;53.10;;;;;;6013329;29;20317;-53
2023/01/10 05:45:58;;;;;;;;;;;20.50;53.10;;;;;;6012873;29;20349;-54
2023/01/10 05:48:59;;;;;;;;;;;20.80;53.30;;;;;;6013109;29;20294;-53
2023/01/10 05:52:01;;;;;;;;;;;20.40;53.10;;;;;;6012941;29;19975;-54
2023/01/10 05:55:03;;;;;;;;;;;20.30;53.10;;;;;;6012471;29;19928;-53
2023/01/10 05:58:04;;;;;;;;;;;20.50;53.00;;;;;;6012888;29;19963;-53
2023/01/10 06:01:06;;;;;;;;;;;20.80;53.40;;;;;;6012765;29;19955;-52
2023/01/10 06:04:07;;;;;;;;;;;20.60;53.10;;;;;;6012203;29;19924;-54
2023/01/10 06:07:09;;;;;;;;;;;20.70;53.40;;;;;;6012798;29;19931;-54
2023/01/10 06:10:10;;;;;;;;;;;20.40;53.10;;;;;;5996139;29;19925;-54
2023/01/10 06:13:11;;;;;;;;;;;20.30;53.00;;;;;;6012300;29;20044;-54
2023/01/10 06:16:13;;;;;;;;;;;20.50;53.30;;;;;;6012091;29;19977;-53
2023/01/10 06:19:14;;;;;;;;;;;20.70;52.90;;;;;;6011878;29;19930;-54
2023/01/10 06:22:16;;;;;;;;;;;20.40;53.20;;;;;;6012081;29;19924;-54
2023/01/10 06:25:17;;;;;;;;;;;20.80;53.40;;;;;;6012372;29;19955;-51
2023/01/10 06:28:19;;;;;;;;;;;20.60;53.30;;;;;;6011653;29;20057;-54
2023/01/10 06:31:20;;;;;;;;;;;21.10;53.50;;;;;;6012037;29;19924;-53
2023/01/10 06:34:23;;;;;;;;;;;20.50;53.30;;;;;;6012301;29;19980;-54
2023/01/10 06:37:25;;;;;;;;;;;20.20;53.30;;;;;;6011894;29;19924;-54
2023/01/10 06:40:27;;;;;;;;;;;20.70;53.30;;;;;;6011799;29;19925;-53
2023/01/10 06:43:28;;;;;;;;;;;20.90;53.40;;;;;;6012296;29;20334;-54
2023/01/10 06:46:30;;;;;;;;;;;20.50;53.40;;;;;;6012558;29;19924;-49
2023/01/10 06:49:31;;;;;;;;;;;20.40;53.30;;;;;;6012156;29;19936;-52
2023/01/10 06:52:33;;;;;;;;;;;20.50;53.30;;;;;;6011945;29;19932;-54
2023/01/10 06:55:34;;;;;;;;;;;20.80;53.60;;;;;;6012615;29;19928;-54
2023/01/10 06:58:37;;;;;;;;;;;20.50;53.20;;;;;;6013094;29;19931;-54
2023/01/10 07:01:38;;;;;;;;;;;21.10;53.60;;;;;;6013375;29;20026;-54
2023/01/10 07:04:40;;;;;;;;;;;20.60;53.50;;;;;;6012422;29;19924;-53
2023/01/10 07:07:42;;;;;;;;;;;20.70;53.50;;;;;;6013651;29;19929;-55
2023/01/10 07:10:43;;;;;;;;;;;20.30;53.40;;;;;;6012008;29;20342;-54
2023/01/10 07:13:44;;;;;;;;;;;20.80;53.70;;;;;;6012850;29;19931;-54
2023/01/10 07:16:45;;;;;;;;;;;20.50;53.40;;;;;;6012993;29;19960;-54
2023/01/10 07:19:47;;;;;;;;;;;20.80;53.50;;;;;;6011988;29;19924;-54
2023/01/10 07:22:53;;;;;;;;;;;20.40;53.30;;;;;;6012856;29;19969;-54
2023/01/10 07:25:55;;;;;;;;;;;20.60;53.20;;;;;;5995859;29;19929;-54
2023/01/10 07:28:56;;;;;;;;;;;20.70;53.40;;;;;;6013659;29;20019;-52
2023/01/10 07:31:57;;;;;;;;;;;21.10;53.60;;;;;;6017399;29;19924;-54
2023/01/10 07:34:59;;;;;;;;;;;20.50;53.40;;;;;;6017593;29;19951;-55
2023/01/10 07:38:02;;;;;;;;;;;20.80;53.40;;;;;;6015149;29;19932;-54
2023/01/10 07:41:03;;;;;;;;;;;20.70;53.40;;;;;;6014846;29;19931;-54
2023/01/10 07:44:05;;;;;;;;;;;21.10;53.60;;;;;;6014871;29;19924;-53
2023/01/10 07:47:06;;;;;;;;;;;20.50;53.30;;;;;;6015615;29;20381;-54
2023/01/10 07:50:08;;;;;;;;;;;20.90;53.60;;;;;;6016437;29;20442;-54
2023/01/10 07:53:10;;;;;;;;;;;20.70;53.30;;;;;;6020580;29;19925;-55
2023/01/10 07:56:12;;;;;;;;;;;21.10;53.60;;;;;;6018430;29;20419;-55
2023/01/10 07:59:13;;;;;;;;;;;20.60;53.30;;;;;;6016665;29;19928;-54
2023/01/10 08:02:14;;;;;;;;;;;21.30;53.70;;;;;;6014506;29;19973;-52
2023/01/10 08:05:17;;;;;;;;;;;20.50;53.30;;;;;;6014129;29;19925;-55
2023/01/10 08:08:19;;;;;;;;;;;21.00;53.60;;;;;;6014696;29;19924;-54
2023/01/10 08:11:20;;;;;;;;;;;20.60;53.30;;;;;;6013886;29;19978;-55
2023/01/10 08:14:21;;;;;;;;;;;21.30;53.70;;;;;;6014074;29;19928;-54
2023/01/10 08:17:23;;;;;;;;;;;20.70;53.20;;;;;;6015403;29;19931;-53
2023/01/10 08:20:24;;;;;;;;;;;21.30;53.50;;;;;;6017319;29;19924;-55
2023/01/10 08:23:26;;;;;;;;;;;20.90;53.30;;;;;;6016871;29;19949;-52
2023/01/10 08:26:28;;;;;;;;;;;21.20;53.60;;;;;;6015911;29;20027;-54
2023/01/10 08:29:30;;;;;;;;;;;20.50;53.00;;;;;;6015054;29;19980;-54
2023/01/10 08:32:31;;;;;;;;;;;21.00;53.30;;;;;;5997808;29;19928;-56
2023/01/10 08:35:36;;;;;;;;;;;20.80;53.00;;;;;;6013722;29;19928;-55
2023/01/10 08:38:38;;;;;;;;;;;21.30;53.30;;;;;;5997031;29;19929;-55
2023/01/10 08:41:40;;;;;;;;;;;20.70;53.20;;;;;;6012571;29;19924;-56
2023/01/10 08:44:41;;;;;;;;;;;21.00;53.10;;;;;;6013539;29;20297;-56
2023/01/10 08:47:42;;;;;;;;;;;21.00;52.80;;;;;;6014274;29;20028;-56
2023/01/10 08:50:44;;;;;;;;;;;21.60;53.60;;;;;;6013431;29;19931;-55
2023/01/10 08:53:46;;;;;;;;;;;20.70;53.00;;;;;;6013132;29;19956;-56
2023/01/10 08:56:47;;;;;;;;;;;21.00;52.90;;;;;;6014554;29;19971;-56
2023/01/10 08:59:48;;;;;;;;;;;21.10;53.40;;;;;;6014895;29;20370;-55
2023/01/10 09:02:50;;;;;;;;;;;21.50;53.40;;;;;;6013679;29;19924;-54
2023/01/10 09:05:52;;;;;;;;;;;21.00;53.70;;;;;;6012791;29;19928;-55
2023/01/10 09:08:53;;;;;;;;;;;21.50;53.60;;;;;;6013339;29;20271;-55
2023/01/10 09:11:56;;;;;;;;;;;20.90;53.20;;;;;;6012811;29;19984;-55
2023/01/10 09:14:57;;;;;;;;;;;21.20;53.20;;;;;;6012769;29;19996;-56
2023/01/10 09:17:59;;;;;;;;;;;21.00;53.10;;;;;;6012571;29;19924;-55
2023/01/10 09:21:02;;;;;;;;;;;21.00;53.10;;;;;;6012293;29;20412;-56
2023/01/10 09:24:04;;;;;;;;;;;21.30;53.20;;;;;;6012753;29;19924;-55
2023/01/10 09:27:05;;;;;;;;;;;21.70;53.60;;;;;;6013015;29;20335;-55
2023/01/10 09:30:08;;;;;;;;;;;21.00;53.20;;;;;;6013039;29;20374;-55
2023/01/10 09:33:09;;;;;;;;;;;21.50;53.40;;;;;;6012192;29;19947;-53
2023/01/10 09:36:12;;;;;;;;;;;21.40;53.50;;;;;;6012348;29;19924;-55
2023/01/10 09:39:14;;;;;;;;;;;21.30;53.40;;;;;;6012021;29;19931;-56
2023/01/10 09:42:21;;;;;;;;;;;21.20;53.50;;;;;;6013100;29;19976;-54
2023/01/10 09:45:30;;;;;;;;;;;21.30;53.40;;;;;;6012376;29;19969;-58
2023/01/10 09:48:35;;;;;;;;;;;21.00;53.20;;;;;;6011813;29;19928;-56
2023/01/10 09:51:38;;;;;;;;;;;21.10;53.10;;;;;;6010925;29;20380;-58
2023/01/10 09:54:41;;;;;;;;;;;21.10;53.30;;;;;;6011930;29;19932;-54
2023/01/10 09:57:42;;;;;;;;;;;21.60;53.70;;;;;;6011691;29;19928;-55
2023/01/10 10:00:46;;;;;;;;;;;21.10;53.30;;;;;;6012050;29;19924;-55
2023/01/10 10:03:51;;;;;;;;;;;21.50;53.40;;;;;;6011580;29;19925;-55
2023/01/10 10:06:53;;;;;;;;;;;21.00;53.30;;;;;;6011475;29;20398;-53
2023/01/10 10:09:55;;;;;;;;;;;21.50;53.70;;;;;;6011812;29;19932;-54
2023/01/10 10:13:07;;;;;;;;;;;21.30;53.50;;;;;;6011552;29;19943;-57
2023/01/10 10:16:13;;;;;;;;;;;21.60;53.60;;;;;;6011698;29;20044;-57
2023/01/10 10:19:19;;;;;;;;;;;21.40;53.50;;;;;;6011295;29;20456;-59
2023/01/10 10:22:25;;;;;;;;;;;21.50;53.60;;;;;;6011153;29;20338;-57
2023/01/10 10:25:39;;;;;;;;;;;21.10;53.40;;;;;;6010988;29;19932;-57
2023/01/10 10:28:49;;;;;;;;;;;21.40;53.60;;;;;;6010912;29;20418;-59
2023/01/10 10:32:03;;;;;;;;;;;21.20;53.40;;;;;;6010966;29;19993;-59
2023/01/10 10:35:08;;;;;;;;;;;21.50;53.60;;;;;;6010859;29;19931;-59
2023/01/10 10:38:11;;;;;;;;;;;21.00;53.40;;;;;;6011096;29;19980;-59
2023/01/10 10:41:15;;;;;;;;;;;21.70;53.70;;;;;;6011448;29;19929;-59
2023/01/10 10:44:26;;;;;;;;;;;21.40;53.60;;;;;;6010775;29;20354;-58
2023/01/10 10:47:30;;;;;;;;;;;21.70;53.80;;;;;;6010964;29;19924;-58
2023/01/10 10:50:32;;;;;;;;;;;21.40;53.70;;;;;;6011403;29;19924;-59
2023/01/10 10:53:34;;;;;;;;;;;21.60;53.80;;;;;;5994711;29;19924;-60
2023/01/10 10:56:36;;;;;;;;;;;21.40;53.70;;;;;;6011375;29;19924;-57
2023/01/10 10:59:38;;;;;;;;;;;21.50;53.90;;;;;;6011771;29;20353;-57
2023/01/10 11:02:41;;;;;;;;;;;21.40;53.70;;;;;;6010772;29;19925;-55
2023/01/10 11:05:49;;;;;;;;;;;21.90;54.00;;;;;;6011930;29;20031;-55
2023/01/10 11:08:52;;;;;;;;;;;21.40;53.70;;;;;;6012007;29;20389;-59
2023/01/10 11:11:55;;;;;;;;;;;21.70;53.90;;;;;;5994881;29;19957;-58
2023/01/10 11:14:57;;;;;;;;;;;21.40;53.90;;;;;;6010566;29;19932;-58
2023/01/10 11:18:03;;;;;;;;;;;21.70;54.00;;;;;;6011195;29;19949;-58
2023/01/10 11:21:05;;;;;;;;;;;21.40;53.70;;;;;;6011021;29;19924;-58
2023/01/10 11:24:17;;;;;;;;;;;21.70;54.60;;;;;;6011321;29;19967;-58
2023/01/10 11:27:27;;;;;;;;;;;21.50;53.80;;;;;;5995163;29;19929;-59
2023/01/10 11:30:30;;;;;;;;;;;21.60;51.80;;;;;;6011492;29;20323;-58
2023/01/10 11:33:34;;;;;;;;;;;21.50;54.00;;;;;;6010497;29;19981;-57
2023/01/10 11:36:50;;;;;;;;;;;22.00;54.30;;;;;;6010215;29;19931;-59
2023/01/10 11:40:00;;;;;;;;;;;21.80;54.10;;;;;;5996390;29;20397;-59
2023/01/10 11:43:22;;;;;;;;;;;21.60;54.10;;;;;;6010170;29;19928;-59
2023/01/10 11:46:24;;;;;;;;;;;21.30;54.20;;;;;;5993810;29;20384;-59
2023/01/10 11:49:28;;;;;;;;;;;21.30;54.00;;;;;;6010439;29;19924;-59
2023/01/10 11:52:30;;;;;;;;;;;21.60;54.30;;;;;;6009743;29;19964;-58
2023/01/10 11:55:34;;;;;;;;;;;21.90;54.40;;;;;;6009845;29;20366;-58
2023/01/10 11:58:37;;;;;;;;;;;21.80;54.20;;;;;;6009732;29;19932;-58
2023/01/10 12:01:39;;;;;;;;;;;21.90;54.50;;;;;;6010130;29;20014;-58
2023/01/10 12:04:43;;;;;;;;;;;21.50;54.20;;;;;;5993507;29;19928;-57
2023/01/10 12:08:00;;;;;;;;;;;21.80;54.40;;;;;;6009672;29;19924;-59
2023/01/10 12:11:04;;;;;;;;;;;21.50;54.20;;;;;;5995638;29;20040;-58
2023/01/10 12:14:18;;;;;;;;;;;21.80;54.40;;;;;;6009975;29;19929;-58
2023/01/10 12:17:22;;;;;;;;;;;21.70;54.40;;;;;;6013245;29;20357;-58
2023/01/10 12:20:24;;;;;;;;;;;22.00;54.50;;;;;;6013825;29;19931;-58
2023/01/10 12:23:27;;;;;;;;;;;21.60;54.40;;;;;;6013737;29;20019;-57
2023/01/10 12:26:29;;;;;;;;;;;22.00;54.60;;;;;;6013295;29;19925;-58
2023/01/10 12:29:33;;;;;;;;;;;21.50;54.30;;;;;;6014123;29;19989;-57
2023/01/10 12:32:42;;;;;;;;;;;22.10;54.90;;;;;;6013003;29;20400;-59
2023/01/10 12:35:46;;;;;;;;;;;21.90;54.70;;;;;;5996817;29;19970;-58
2023/01/10 12:45:39;;;;;;;;;;;21.70;53.90;;;;;;6012314;29;20285;-55
2023/01/10 12:48:43;;;;;;;;;;;21.60;54.60;;;;;;5996440;29;19931;-58
2023/01/10 12:51:45;;;;;;;;;;;21.80;54.70;;;;;;6013393;29;20398;-57
2023/01/10 12:54:46;;;;;;;;;;;21.60;54.60;;;;;;6013329;29;20289;-54
2023/01/10 12:57:52;;;;;;;;;;;22.30;55.10;;;;;;6013675;29;20334;-55
2023/01/10 13:00:55;;;;;;;;;;;21.80;54.80;;;;;;5997072;29;19924;-57
2023/01/10 13:04:00;;;;;;;;;;;21.90;54.90;;;;;;6012901;29;19930;-54
2023/01/10 13:07:02;;;;;;;;;;;21.80;54.70;;;;;;6012988;29;19960;-52
2023/01/10 13:10:04;;;;;;;;;;;22.20;55.00;;;;;;6013269;29;19981;-55
2023/01/10 13:13:12;;;;;;;;;;;21.90;54.90;;;;;;6012068;29;19931;-54
2023/01/10 13:16:21;;;;;;;;;;;21.90;54.20;;;;;;6012386;29;19924;-52
2023/01/10 13:19:24;;;;;;;;;;;21.60;54.70;;;;;;5996679;29;19928;-54
2023/01/10 13:22:25;;;;;;;;;;;22.40;55.20;;;;;;5996363;29;20401;-54
2023/01/10 13:25:28;;;;;;;;;;;21.60;54.70;;;;;;6011968;29;20397;-52
2023/01/10 13:28:30;;;;;;;;;;;22.30;55.10;;;;;;6012824;29;19959;-53
2023/01/10 13:31:34;;;;;;;;;;;21.80;54.80;;;;;;6012926;29;19928;-54
2023/01/10 13:34:35;;;;;;;;;;;22.00;52.70;;;;;;6012005;29;19981;-53
2023/01/10 13:37:39;;;;;;;;;;;21.90;54.90;;;;;;6012341;29;19966;-53
2023/01/10 13:40:40;;;;;;;;;;;22.10;55.00;;;;;;6012324;29;19924;-54
2023/01/10 13:43:57;;;;;;;;;;;21.60;54.80;;;;;;6011388;29;19935;-50
2023/01/10 13:46:59;;;;;;;;;;;21.70;54.80;;;;;;6011809;29;19929;-52
2023/01/10 13:50:00;;;;;;;;;;;21.70;55.30;;;;;;6011913;29;19924;-54
2023/01/10 13:53:16;;;;;;;;;;;21.80;55.40;;;;;;6011763;29;19931;-54
2023/01/10 13:56:29;;;;;;;;;;;21.70;54.90;;;;;;5997415;29;19977;-51
2023/01/10 14:03:01;;;;;;;;;;;21.80;54.90;;;;;;6011753;29;19950;-52
2023/01/10 14:06:03;;;;;;;;;;;22.00;55.20;;;;;;6011584;29;19928;-56
2023/01/10 14:09:05;;;;;;;;;;;21.60;55.00;;;;;;6011622;29;19925;-57
2023/01/10 14:12:15;;;;;;;;;;;22.30;55.30;;;;;;5995249;29;19924;-56
2023/01/10 14:15:22;;;;;;;;;;;21.70;55.00;;;;;;6011588;29;19925;-54
2023/01/10 14:18:27;;;;;;;;;;;22.20;55.20;;;;;;6011403;29;19928;-56
2023/01/10 14:21:29;;;;;;;;;;;21.80;55.20;;;;;;6011628;29;19932;-54
2023/01/10 14:24:40;;;;;;;;;;;22.10;55.20;;;;;;6011322;29;20011;-56
2023/01/10 14:27:43;;;;;;;;;;;21.50;54.80;;;;;;6011099;29;20417;-54
2023/01/10 14:30:51;;;;;;;;;;;22.10;54.90;;;;;;6011888;29;19924;-56
2023/01/10 14:33:53;;;;;;;;;;;22.00;55.10;;;;;;6013704;29;20488;-56
2023/01/10 14:36:57;;;;;;;;;;;22.20;55.30;;;;;;6013363;29;19975;-55
2023/01/10 14:39:59;;;;;;;;;;;21.80;55.00;;;;;;6011483;29;20395;-55
2023/01/10 14:43:02;;;;;;;;;;;22.40;55.40;;;;;;6013657;29;19925;-55
2023/01/10 14:46:06;;;;;;;;;;;21.80;54.90;;;;;;6012252;29;19931;-55
2023/01/10 14:49:19;;;;;;;;;;;21.90;55.00;;;;;;6014048;29;19924;-56
2023/01/10 14:52:22;;;;;;;;;;;21.90;55.10;;;;;;6001209;29;19957;-54
2023/01/10 14:55:24;;;;;;;;;;;21.90;55.00;;;;;;6011261;29;19932;-57
2023/01/10 14:58:25;;;;;;;;;;;21.60;54.90;;;;;;6011661;29;19932;-57
2023/01/10 15:01:28;;;;;;;;;;;22.40;55.50;;;;;;6011060;29;19931;-57
2023/01/10 15:04:32;;;;;;;;;;;21.70;54.90;;;;;;6010866;29;19924;-57
2023/01/10 15:07:33;;;;;;;;;;;23.00;55.70;;;;;;6010869;29;19976;-57
2023/01/10 15:10:38;;;;;;;;;;;21.90;55.10;;;;;;6010719;29;19924;-57
2023/01/10 15:13:49;;;;;;;;;;;22.40;55.40;;;;;;6011539;29;19924;-57
2023/01/10 15:16:51;;;;;;;;;;;22.00;55.30;;;;;;6012058;29;20417;-57
2023/01/10 15:19:54;;;;;;;;;;;22.10;55.30;;;;;;5994762;29;19928;-55
2023/01/10 15:22:56;;;;;;;;;;;21.90;55.40;;;;;;6012743;29;19993;-55
2023/01/10 15:26:00;;;;;;;;;;;22.20;55.30;;;;;;6010294;29;19962;-58
2023/01/10 15:29:05;;;;;;;;;;;21.70;55.30;;;;;;6011297;29;19955;-57
2023/01/10 15:32:09;;;;;;;;;;;22.20;55.30;;;;;;6012081;29;19932;-57
2023/01/10 15:35:11;;;;;;;;;;;21.60;55.00;;;;;;5994029;29;20381;-58
2023/01/10 15:38:19;;;;;;;;;;;22.20;55.30;;;;;;6010522;29;19928;-56
2023/01/10 15:41:22;;;;;;;;;;;22.10;55.30;;;;;;5994955;29;19924;-57
2023/01/10 15:44:33;;;;;;;;;;;22.30;55.50;;;;;;6009936;29;19996;-55
2023/01/10 15:47:36;;;;;;;;;;;22.10;55.20;;;;;;6011008;29;19924;-56
2023/01/10 15:50:52;;;;;;;;;;;22.20;55.30;;;;;;6013484;29;19924;-56
2023/01/10 15:53:59;;;;;;;;;;;21.80;55.20;;;;;;6017111;29;19924;-54
2023/01/10 15:57:06;;;;;;;;;;;22.20;55.10;;;;;;5999557;29;20007;-56
2023/01/10 16:00:12;;;;;;;;;;;22.10;55.30;;;;;;6017209;29;19924;-56
2023/01/10 16:03:20;;;;;;;;;;;22.40;55.50;;;;;;6021060;29;19931;-56
2023/01/10 16:06:24;;;;;;;;;;;21.80;55.10;;;;;;6020369;29;19932;-56
2023/01/10 16:09:25;;;;;;;;;;;22.20;55.20;;;;;;6018446;29;19932;-56
2023/01/10 16:15:49;;;;;;;;;;;22.30;55.50;;;;;;6023220;29;19950;-56
2023/01/10 16:18:51;;;;;;;;;;;21.70;54.90;;;;;;6019913;29;19924;-56
2023/01/10 16:21:56;;;;;;;;;;;22.20;55.50;;;;;;6020475;29;19999;-54
2023/01/10 16:24:58;;;;;;;;;;;22.00;55.30;;;;;;6023366;29;19924;-55
2023/01/10 16:27:59;;;;;;;;;;;22.50;55.50;;;;;;6018646;29;20259;-56
2023/01/10 16:31:00;;;;;;;;;;;22.00;55.10;;;;;;6017188;29;20011;-56
2023/01/10 16:34:02;;;;;;;;;;;22.10;55.10;;;;;;6016429;29;20377;-56
2023/01/10 16:37:04;;;;;;;;;;;22.00;55.30;;;;;;6015742;29;19928;-58
2023/01/10 16:40:14;;;;;;;;;;;22.10;55.20;;;;;;6016033;29;20369;-56
2023/01/10 16:43:17;;;;;;;;;;;22.10;55.20;;;;;;6016711;29;19925;-56
2023/01/10 16:46:18;;;;;;;;;;;22.30;55.30;;;;;;6018708;29;19925;-56
2023/01/10 16:49:19;;;;;;;;;;;22.20;55.40;;;;;;6016970;29;19931;-56
2023/01/10 16:52:21;;;;;;;;;;;22.70;55.70;;;;;;6015020;29;19928;-57
2023/01/10 16:55:24;;;;;;;;;;;22.10;55.40;;;;;;6013730;29;19928;-58
2023/01/10 16:58:25;;;;;;;;;;;22.40;55.40;;;;;;5997419;29;19960;-56
2023/01/10 17:01:29;;;;;;;;;;;22.00;55.10;;;;;;6015477;29;19947;-56
2023/01/10 17:04:33;;;;;;;;;;;22.50;55.40;;;;;;5997025;29;19947;-54
2023/01/10 17:07:35;;;;;;;;;;;22.60;55.50;;;;;;6015676;29;19924;-55
2023/01/10 17:10:37;;;;;;;;;;;22.30;55.30;;;;;;6014223;29;19924;-55
2023/01/10 17:13:40;;;;;;;;;;;22.20;55.30;;;;;;6013342;29;20289;-57
2023/01/10 17:16:41;;;;;;;;;;;22.50;55.40;;;;;;6014534;29;19928;-56
2023/01/10 17:19:43;;;;;;;;;;;22.10;55.30;;;;;;6013396;29;19929;-56
2023/01/10 17:22:45;;;;;;;;;;;22.10;55.40;;;;;;6013148;29;20461;-57
2023/01/10 17:25:48;;;;;;;;;;;22.00;55.40;;;;;;6012843;29;20274;-57
2023/01/10 17:28:49;;;;;;;;;;;22.40;55.50;;;;;;6013158;29;19951;-57
2023/01/10 17:31:51;;;;;;;;;;;22.10;55.30;;;;;;6012878;29;20370;-57
2023/01/10 17:34:52;;;;;;;;;;;22.60;55.60;;;;;;6012719;29;19976;-56
2023/01/10 17:37:55;;;;;;;;;;;22.10;55.30;;;;;;6012473;29;19963;-56
2023/01/10 17:41:00;;;;;;;;;;;22.40;55.50;;;;;;6012569;29;20402;-57
2023/01/10 17:44:02;;;;;;;;;;;22.20;55.40;;;;;;6012820;29;20428;-56
2023/01/10 17:47:03;;;;;;;;;;;22.60;55.70;;;;;;6012174;29;19924;-56
2023/01/10 17:50:04;;;;;;;;;;;21.90;55.20;;;;;;6012305;29;19980;-56
2023/01/10 17:53:06;;;;;;;;;;;22.10;55.40;;;;;;6012126;29;19931;-55
2023/01/10 17:56:07;;;;;;;;;;;22.10;55.40;;;;;;6014064;29;19925;-56
2023/01/10 17:59:09;;;;;;;;;;;22.30;55.60;;;;;;6018148;29;19931;-58
2023/01/10 18:02:14;;;;;;;;;;;21.90;55.10;;;;;;6012259;29;20289;-57
2023/01/10 18:05:16;;;;;;;;;;;22.50;55.50;;;;;;5996928;29;19981;-54
2023/01/10 18:08:18;;;;;;;;;;;21.80;55.00;;;;;;6013747;29;20441;-55